Time;durP1;ratioP1;P1;durP2;ratioP2;P2;SDS_P1;SDS_P2;PMS_P1;PMS_P2;Temp;Humidity;BMP_temperature;BMP_pressure;BME280_temperature;BME280_humidity;BME280_pressure;Samples;Min_cycle;Max_cycle;Signal;HPM_P1;HPM_P2
2023/01/25 00:00:27;;;;;;;;;;;;;;;;;;5103491;28;19960;-72
2023/01/25 00:02:53;;;;;;;;;;;;;;;;;;5097755;28;20406;-72
2023/01/25 00:05:19;;;;;;;;;;;;;;;;;;5100002;28;20001;-72
2023/01/25 00:07:44;;;;;;;;;;;;;;;;;;5105770;28;19919;-73
2023/01/25 00:10:10;;;;;;;;;;;;;;;;;;5098173;28;19920;-73
2023/01/25 00:12:36;;;;;;;;;;;;;;;;;;5105529;28;19984;-72
2023/01/25 00:15:02;;;;;;;;;;;;;;;;;;5101864;28;19927;-72
2023/01/25 00:17:28;;;;;;;;;;;;;;;;;;5103621;27;19916;-72
2023/01/25 00:19:54;;;;;;;;;;;;;;;;;;5104137;28;19970;-72
2023/01/25 00:22:20;;;;;;;;;;;;;;;;;;5105948;28;20272;-72
2023/01/25 00:24:46;;;;;;;;;;;;;;;;;;5099001;28;19924;-72
2023/01/25 00:27:11;;;;;;;;;;;;;;;;;;5101869;28;19916;-73
2023/01/25 00:29:37;;;;;;;;;;;;;;;;;;5104972;28;19930;-72
2023/01/25 00:32:03;;;;;;;;;;;;;;;;;;5104195;28;19912;-73
2023/01/25 00:34:29;;;;;;;;;;;;;;;;;;5102007;28;19938;-72
2023/01/25 00:36:55;;;;;;;;;;;;;;;;;;5102731;28;19989;-72
2023/01/25 00:39:21;;;;;;;;;;;;;;;;;;5097293;28;20671;-72
2023/01/25 00:41:47;;;;;;;;;;;;;;;;;;5098153;28;19952;-73
2023/01/25 00:44:13;;;;;;;;;;;;;;;;;;5104172;28;19931;-72
2023/01/25 00:46:39;;;;;;;;;;;;;;;;;;5104092;27;20443;-72
2023/01/25 00:49:05;;;;;;;;;;;;;;;;;;5106280;28;19915;-72
2023/01/25 00:51:31;;;;;;;;;;;;;;;;;;5102192;28;20569;-73
2023/01/25 00:53:57;;;;;;;;;;;;;;;;;;5102284;28;19994;-73
2023/01/25 00:56:23;;;;;;;;;;;;;;;;;;5100777;28;19916;-72
2023/01/25 00:58:48;;;;;;;;;;;;;;;;;;5100221;28;19943;-72
2023/01/25 01:01:14;;;;;;;;;;;;;;;;;;5102183;28;19988;-73
2023/01/25 01:03:40;;;;;;;;;;;;;;;;;;5098914;28;19931;-73
2023/01/25 01:06:06;;;;;;;;;;;;;;;;;;5105952;28;22705;-72
2023/01/25 01:08:32;;;;;;;;;;;;;;;;;;5106494;28;19923;-72
2023/01/25 01:10:58;;;;;;;;;;;;;;;;;;5098204;28;20357;-72
2023/01/25 01:13:24;;;;;;;;;;;;;;;;;;5097177;28;19986;-73
2023/01/25 01:15:50;;;;;;;;;;;;;;;;;;5099111;28;20079;-73
2023/01/25 01:18:16;;;;;;;;;;;;;;;;;;5100854;28;19926;-72
2023/01/25 01:20:42;;;;;;;;;;;;;;;;;;5105165;28;19916;-72
2023/01/25 01:23:08;;;;;;;;;;;;;;;;;;5103707;28;19916;-73
2023/01/25 01:25:34;;;;;;;;;;;;;;;;;;5099666;28;19931;-72
2023/01/25 01:28:00;;;;;;;;;;;;;;;;;;5099530;28;19919;-72
2023/01/25 01:30:25;;;;;;;;;;;;;;;;;;5100291;28;20002;-72
2023/01/25 01:32:51;;;;;;;;;;;;;;;;;;5099833;28;19923;-72
2023/01/25 01:35:17;;;;;;;;;;;;;;;;;;5104500;28;19919;-72
2023/01/25 01:37:43;;;;;;;;;;;;;;;;;;5102732;28;19916;-72
2023/01/25 01:40:09;;;;;;;;;;;;;;;;;;5096629;28;19995;-72
2023/01/25 01:42:35;;;;;;;;;;;;;;;;;;5101892;28;19928;-73
2023/01/25 01:45:01;;;;;;;;;;;;;;;;;;5106292;28;19930;-73
2023/01/25 01:47:27;;;;;;;;;;;;;;;;;;5098947;28;20000;-73
2023/01/25 01:49:53;;;;;;;;;;;;;;;;;;5099364;28;19919;-73
2023/01/25 01:52:19;;;;;;;;;;;;;;;;;;5105103;28;19922;-73
2023/01/25 01:54:44;;;;;;;;;;;;;;;;;;5100834;28;19924;-72
2023/01/25 01:57:10;;;;;;;;;;;;;;;;;;5107563;28;19915;-73
2023/01/25 01:59:36;;;;;;;;;;;;;;;;;;5100702;28;20007;-73
2023/01/25 02:02:02;;;;;;;;;;;;;;;;;;5097111;28;19939;-72
2023/01/25 02:04:28;;;;;;;;;;;;;;;;;;5102580;28;19931;-73
2023/01/25 02:06:54;;;;;;;;;;;;;;;;;;5099335;28;19966;-73
2023/01/25 02:09:20;;;;;;;;;;;;;;;;;;5103919;28;20373;-71
2023/01/25 02:11:46;;;;;;;;;;;;;;;;;;5106725;28;19915;-73
2023/01/25 02:14:11;;;;;;;;;;;;;;;;;;5107400;28;20585;-73
2023/01/25 02:16:37;;;;;;;;;;;;;;;;;;5097149;28;20007;-73
2023/01/25 02:19:03;;;;;;;;;;;;;;;;;;5105512;28;20010;-73
2023/01/25 02:21:29;;;;;;;;;;;;;;;;;;5098140;28;19920;-73
2023/01/25 02:23:55;;;;;;;;;;;;;;;;;;5094661;28;19953;-73
2023/01/25 02:26:21;;;;;;;;;;;;;;;;;;5096386;28;20660;-73
2023/01/25 02:28:47;;;;;;;;;;;;;;;;;;5099365;28;19926;-73
2023/01/25 02:31:13;;;;;;;;;;;;;;;;;;5100890;28;19916;-73
2023/01/25 02:33:39;;;;;;;;;;;;;;;;;;5095568;28;19924;-73
2023/01/25 02:36:04;;;;;;;;;;;;;;;;;;5100921;28;19974;-73
2023/01/25 02:38:30;;;;;;;;;;;;;;;;;;5098336;28;20428;-73
2023/01/25 02:40:56;;;;;;;;;;;;;;;;;;5103980;28;20036;-73
2023/01/25 02:43:22;;;;;;;;;;;;;;;;;;5098809;28;19965;-73
2023/01/25 02:45:48;;;;;;;;;;;;;;;;;;5103136;28;20383;-72
2023/01/25 02:48:14;;;;;;;;;;;;;;;;;;5106293;28;19920;-73
2023/01/25 02:50:40;;;;;;;;;;;;;;;;;;5107854;27;20365;-72
2023/01/25 02:53:06;;;;;;;;;;;;;;;;;;5107187;27;20388;-72
2023/01/25 02:55:31;;;;;;;;;;;;;;;;;;5100245;28;19980;-73
2023/01/25 02:57:57;;;;;;;;;;;;;;;;;;5105379;28;20379;-73
2023/01/25 03:00:23;;;;;;;;;;;;;;;;;;5103229;27;19920;-70
2023/01/25 03:02:49;;;;;;;;;;;;;;;;;;5106055;28;19916;-73
2023/01/25 03:05:15;;;;;;;;;;;;;;;;;;5095706;28;19969;-73
2023/01/25 03:07:41;;;;;;;;;;;;;;;;;;5102340;28;19915;-73
2023/01/25 03:10:07;;;;;;;;;;;;;;;;;;5104434;28;19920;-70
2023/01/25 03:12:33;;;;;;;;;;;;;;;;;;5108285;28;19922;-73
2023/01/25 03:14:59;;;;;;;;;;;;;;;;;;5100927;28;19927;-73
2023/01/25 03:17:24;;;;;;;;;;;;;;;;;;5105704;28;19920;-73
2023/01/25 03:19:52;;;;;;;;;;;;;;;;;;5106343;28;20387;-73
2023/01/25 03:22:18;;;;;;;;;;;;;;;;;;5107530;28;19919;-73
2023/01/25 03:24:44;;;;;;;;;;;;;;;;;;5099094;28;20513;-72
2023/01/25 03:27:10;;;;;;;;;;;;;;;;;;5105611;28;19915;-73
2023/01/25 03:29:36;;;;;;;;;;;;;;;;;;5100088;28;20019;-73
2023/01/25 03:32:02;;;;;;;;;;;;;;;;;;5102610;28;19999;-73
2023/01/25 03:34:28;;;;;;;;;;;;;;;;;;5106461;28;19920;-72
2023/01/25 03:36:54;;;;;;;;;;;;;;;;;;5099054;28;19916;-73
2023/01/25 03:39:20;;;;;;;;;;;;;;;;;;5109027;28;19926;-73
2023/01/25 03:41:45;;;;;;;;;;;;;;;;;;5101988;27;19924;-73
2023/01/25 03:44:11;;;;;;;;;;;;;;;;;;5106477;27;19964;-73
2023/01/25 03:46:37;;;;;;;;;;;;;;;;;;5101166;28;19920;-73
2023/01/25 03:49:03;;;;;;;;;;;;;;;;;;5099427;28;19958;-73
2023/01/25 03:51:29;;;;;;;;;;;;;;;;;;5108480;27;19915;-73
2023/01/25 03:53:55;;;;;;;;;;;;;;;;;;5104012;27;20417;-73
2023/01/25 03:56:21;;;;;;;;;;;;;;;;;;5106395;28;19926;-73
2023/01/25 03:58:47;;;;;;;;;;;;;;;;;;5107727;28;20307;-73
2023/01/25 04:01:12;;;;;;;;;;;;;;;;;;5099090;27;19915;-73
2023/01/25 04:03:38;;;;;;;;;;;;;;;;;;5106903;28;19947;-73
2023/01/25 04:06:04;;;;;;;;;;;;;;;;;;5107024;28;19926;-72
2023/01/25 04:08:30;;;;;;;;;;;;;;;;;;5099674;28;19924;-73
2023/01/25 04:10:56;;;;;;;;;;;;;;;;;;5100371;28;20352;-73
2023/01/25 04:13:22;;;;;;;;;;;;;;;;;;5104273;28;19963;-72
2023/01/25 04:15:48;;;;;;;;;;;;;;;;;;5099496;28;20585;-72
2023/01/25 04:18:14;;;;;;;;;;;;;;;;;;5094885;28;19923;-73
2023/01/25 04:20:40;;;;;;;;;;;;;;;;;;5100874;28;19977;-73
2023/01/25 04:23:06;;;;;;;;;;;;;;;;;;5104738;28;19915;-71
2023/01/25 04:25:32;;;;;;;;;;;;;;;;;;5101103;28;19967;-73
2023/01/25 04:27:58;;;;;;;;;;;;;;;;;;5102293;28;19947;-73
2023/01/25 04:30:24;;;;;;;;;;;;;;;;;;5100536;28;19926;-73
2023/01/25 04:32:50;;;;;;;;;;;;;;;;;;5105452;27;19953;-73
2023/01/25 04:35:16;;;;;;;;;;;;;;;;;;5094074;28;20360;-74
2023/01/25 04:37:41;;;;;;;;;;;;;;;;;;5103568;28;20010;-73
2023/01/25 04:40:07;;;;;;;;;;;;;;;;;;5099055;28;20470;-73
2023/01/25 04:42:33;;;;;;;;;;;;;;;;;;5105762;28;19919;-73
2023/01/25 04:44:59;;;;;;;;;;;;;;;;;;5100764;28;19920;-72
2023/01/25 04:47:25;;;;;;;;;;;;;;;;;;5098041;28;19926;-73
2023/01/25 04:49:51;;;;;;;;;;;;;;;;;;5097203;28;20003;-73
2023/01/25 04:52:17;;;;;;;;;;;;;;;;;;5100324;28;20257;-73
2023/01/25 04:54:43;;;;;;;;;;;;;;;;;;5106027;27;19981;-73
2023/01/25 04:57:08;;;;;;;;;;;;;;;;;;5099842;28;19951;-72
2023/01/25 04:59:34;;;;;;;;;;;;;;;;;;5105405;28;19923;-72
2023/01/25 05:02:00;;;;;;;;;;;;;;;;;;5105953;22;19928;-73
2023/01/25 05:04:26;;;;;;;;;;;;;;;;;;5073109;28;19925;-72
2023/01/25 05:06:52;;;;;;;;;;;;;;;;;;5073071;28;19958;-73
2023/01/25 05:09:18;;;;;;;;;;;;;;;;;;5075435;28;19955;-72
2023/01/25 05:11:44;;;;;;;;;;;;;;;;;;5077773;28;19927;-72
2023/01/25 05:14:10;;;;;;;;;;;;;;;;;;5077452;28;19916;-73
2023/01/25 05:16:36;;;;;;;;;;;;;;;;;;5076047;28;19924;-73
2023/01/25 05:19:02;;;;;;;;;;;;;;;;;;5068989;28;19917;-72
2023/01/25 05:24:12;;;;;;;;;;;;;;;;;;5071744;28;20767;-72
2023/01/25 05:29:23;;;;;;;;;;;;;;;;;;5071432;28;19923;-72
2023/01/25 05:31:48;;;;;;;;;;;;;;;;;;5066654;28;19921;-73
2023/01/25 05:34:14;;;;;;;;;;;;;;;;;;5073388;28;19927;-72
2023/01/25 05:36:40;;;;;;;;;;;;;;;;;;5078768;28;19920;-73
2023/01/25 05:39:07;;;;;;;;;;;;;;;;;;5075366;28;19920;-73
2023/01/25 05:41:33;;;;;;;;;;;;;;;;;;5078549;28;19929;-73
2023/01/25 05:43:59;;;;;;;;;;;;;;;;;;5080265;28;19917;-73
2023/01/25 05:46:25;;;;;;;;;;;;;;;;;;5077498;28;19924;-73
2023/01/25 05:48:51;;;;;;;;;;;;;;;;;;5081360;28;20089;-73
2023/01/25 05:51:16;;;;;;;;;;;;;;;;;;5079446;28;19920;-72
2023/01/25 05:53:42;;;;;;;;;;;;;;;;;;5069679;28;19916;-72
2023/01/25 05:56:09;;;;;;;;;;;;;;;;;;5075883;28;20309;-73
2023/01/25 05:58:35;;;;;;;;;;;;;;;;;;5069020;28;19920;-72
2023/01/25 06:01:01;;;;;;;;;;;;;;;;;;5070306;28;19923;-73
2023/01/25 06:03:27;;;;;;;;;;;;;;;;;;5077828;28;19927;-73
2023/01/25 06:05:53;;;;;;;;;;;;;;;;;;5070217;28;20353;-72
2023/01/25 06:08:19;;;;;;;;;;;;;;;;;;5078820;28;19998;-73
2023/01/25 06:10:44;;;;;;;;;;;;;;;;;;5071624;28;20273;-72
2023/01/25 06:13:10;;;;;;;;;;;;;;;;;;5054199;28;19927;-73
2023/01/25 06:15:36;;;;;;;;;;;;;;;;;;5079533;28;19920;-72
2023/01/25 06:18:02;;;;;;;;;;;;;;;;;;5067485;28;19967;-73
2023/01/25 06:20:28;;;;;;;;;;;;;;;;;;5058988;28;20009;-73
2023/01/25 06:22:54;;;;;;;;;;;;;;;;;;5066455;28;19920;-74
2023/01/25 06:25:20;;;;;;;;;;;;;;;;;;5071526;28;19920;-73
2023/01/25 06:27:46;;;;;;;;;;;;;;;;;;5070757;28;19924;-73
2023/01/25 06:30:11;;;;;;;;;;;;;;;;;;5071528;28;20679;-73
2023/01/25 06:32:37;;;;;;;;;;;;;;;;;;5066536;28;19924;-73
2023/01/25 06:35:03;;;;;;;;;;;;;;;;;;5070153;28;19923;-73
2023/01/25 06:37:29;;;;;;;;;;;;;;;;;;5054882;28;19920;-73
2023/01/25 06:39:55;;;;;;;;;;;;;;;;;;5070596;28;19923;-74
2023/01/25 06:42:21;;;;;;;;;;;;;;;;;;5063661;28;20524;-73
2023/01/25 06:44:47;;;;;;;;;;;;;;;;;;5075396;28;19920;-73
2023/01/25 06:47:13;;;;;;;;;;;;;;;;;;5069965;28;20774;-73
2023/01/25 06:49:39;;;;;;;;;;;;;;;;;;5075991;28;19923;-74
2023/01/25 06:52:04;;;;;;;;;;;;;;;;;;5069863;28;19920;-72
2023/01/25 06:54:30;;;;;;;;;;;;;;;;;;5068719;28;19924;-72
2023/01/25 06:56:56;;;;;;;;;;;;;;;;;;5073579;28;19924;-74
2023/01/25 06:59:22;;;;;;;;;;;;;;;;;;5065001;28;20475;-73
2023/01/25 07:01:48;;;;;;;;;;;;;;;;;;5066939;28;19932;-72
2023/01/25 07:04:14;;;;;;;;;;;;;;;;;;5066212;28;20011;-71
2023/01/25 07:06:40;;;;;;;;;;;;;;;;;;5071815;28;19930;-71
2023/01/25 07:09:06;;;;;;;;;;;;;;;;;;5068045;28;19942;-72
2023/01/25 07:11:32;;;;;;;;;;;;;;;;;;5070383;28;19920;-72
2023/01/25 07:13:59;;;;;;;;;;;;;;;;;;5065839;28;19920;-71
2023/01/25 07:16:25;;;;;;;;;;;;;;;;;;5068751;28;19931;-73
2023/01/25 07:18:50;;;;;;;;;;;;;;;;;;5065699;28;19916;-73
2023/01/25 07:21:16;;;;;;;;;;;;;;;;;;5065792;28;19921;-72
2023/01/25 07:23:42;;;;;;;;;;;;;;;;;;5062657;28;19927;-71
2023/01/25 07:26:08;;;;;;;;;;;;;;;;;;5069786;28;19978;-71
2023/01/25 07:28:35;;;;;;;;;;;;;;;;;;5067552;28;20317;-72
2023/01/25 07:31:01;;;;;;;;;;;;;;;;;;5067058;28;19923;-73
2023/01/25 07:33:26;;;;;;;;;;;;;;;;;;5064307;28;19920;-73
2023/01/25 07:35:52;;;;;;;;;;;;;;;;;;5070156;28;20721;-72
2023/01/25 07:38:18;;;;;;;;;;;;;;;;;;5070792;28;19916;-72
2023/01/25 07:40:44;;;;;;;;;;;;;;;;;;5069492;28;19947;-72
2023/01/25 07:43:10;;;;;;;;;;;;;;;;;;5070354;28;20415;-72
2023/01/25 07:45:36;;;;;;;;;;;;;;;;;;5055704;28;19924;-72
2023/01/25 07:48:02;;;;;;;;;;;;;;;;;;5071367;28;20696;-72
2023/01/25 07:50:28;;;;;;;;;;;;;;;;;;5068645;28;20015;-72
2023/01/25 07:52:53;;;;;;;;;;;;;;;;;;5072047;28;19936;-72
2023/01/25 07:55:19;;;;;;;;;;;;;;;;;;5073202;28;20389;-72
2023/01/25 07:57:46;;;;;;;;;;;;;;;;;;5066586;28;19920;-72
2023/01/25 08:00:12;;;;;;;;;;;;;;;;;;5070955;28;20334;-72
2023/01/25 08:02:38;;;;;;;;;;;;;;;;;;5069865;28;19928;-72
2023/01/25 08:05:05;;;;;;;;;;;;;;;;;;5067611;28;19936;-72
2023/01/25 08:07:31;;;;;;;;;;;;;;;;;;5068305;28;19936;-72
2023/01/25 08:09:56;;;;;;;;;;;;;;;;;;5070483;28;19926;-72
2023/01/25 08:12:24;;;;;;;;;;;;;;;;;;5071443;28;19958;-73
2023/01/25 08:14:50;;;;;;;;;;;;;;;;;;5068516;28;20394;-72
2023/01/25 08:17:16;;;;;;;;;;;;;;;;;;5071711;28;19977;-72
2023/01/25 08:19:42;;;;;;;;;;;;;;;;;;5069638;28;19920;-71
2023/01/25 08:22:08;;;;;;;;;;;;;;;;;;5070058;28;19926;-71
2023/01/25 08:24:34;;;;;;;;;;;;;;;;;;5072566;28;19916;-72
2023/01/25 08:27:00;;;;;;;;;;;;;;;;;;5071668;28;19990;-73
2023/01/25 08:29:26;;;;;;;;;;;;;;;;;;5044964;28;19916;-73
2023/01/25 08:31:52;;;;;;;;;;;;;;;;;;5066115;28;19921;-73
2023/01/25 08:34:18;;;;;;;;;;;;;;;;;;5066389;28;19924;-73
2023/01/25 08:36:44;;;;;;;;;;;;;;;;;;5049689;28;20023;-72
2023/01/25 08:39:10;;;;;;;;;;;;;;;;;;5070451;28;19919;-73
2023/01/25 08:41:36;;;;;;;;;;;;;;;;;;5072143;28;19970;-72
2023/01/25 08:44:02;;;;;;;;;;;;;;;;;;5066068;28;20366;-72
2023/01/25 08:46:28;;;;;;;;;;;;;;;;;;5070738;28;19963;-72
2023/01/25 08:48:54;;;;;;;;;;;;;;;;;;5067124;28;20392;-72
2023/01/25 08:51:20;;;;;;;;;;;;;;;;;;5071979;28;19921;-72
2023/01/25 08:53:46;;;;;;;;;;;;;;;;;;5067273;28;19916;-72
2023/01/25 08:56:11;;;;;;;;;;;;;;;;;;5071928;28;20385;-72
2023/01/25 08:58:37;;;;;;;;;;;;;;;;;;5068927;28;19917;-72
2023/01/25 09:01:03;;;;;;;;;;;;;;;;;;5068025;28;19954;-72
2023/01/25 09:03:29;;;;;;;;;;;;;;;;;;5059135;28;19912;-72
2023/01/25 09:05:55;;;;;;;;;;;;;;;;;;5071859;28;20425;-72
2023/01/25 09:08:21;;;;;;;;;;;;;;;;;;5069873;28;20366;-72
2023/01/25 09:10:47;;;;;;;;;;;;;;;;;;5072096;28;19943;-72
2023/01/25 09:13:13;;;;;;;;;;;;;;;;;;5072895;28;19916;-72
2023/01/25 09:15:39;;;;;;;;;;;;;;;;;;5072402;28;20365;-72
2023/01/25 09:18:05;;;;;;;;;;;;;;;;;;5049985;28;19924;-72
2023/01/25 09:20:30;;;;;;;;;;;;;;;;;;5049424;28;20781;-72
2023/01/25 09:22:56;;;;;;;;;;;;;;;;;;5066434;28;20037;-73
2023/01/25 09:25:22;;;;;;;;;;;;;;;;;;5073685;28;19920;-72
2023/01/25 09:27:49;;;;;;;;;;;;;;;;;;5071469;28;20346;-72
2023/01/25 09:30:15;;;;;;;;;;;;;;;;;;5068831;28;20619;-72
2023/01/25 09:32:41;;;;;;;;;;;;;;;;;;5066639;28;19982;-72
2023/01/25 09:35:06;;;;;;;;;;;;;;;;;;5070289;28;19920;-72
2023/01/25 09:37:32;;;;;;;;;;;;;;;;;;5048847;28;20843;-72
2023/01/25 09:39:59;;;;;;;;;;;;;;;;;;5048943;28;19958;-72
2023/01/25 09:42:25;;;;;;;;;;;;;;;;;;5069073;28;20413;-72
2023/01/25 09:44:51;;;;;;;;;;;;;;;;;;5071157;28;20007;-72
2023/01/25 09:47:17;;;;;;;;;;;;;;;;;;5073972;28;19924;-71
2023/01/25 09:49:43;;;;;;;;;;;;;;;;;;5070356;28;19938;-72
2023/01/25 09:52:09;;;;;;;;;;;;;;;;;;5068299;28;19920;-72
2023/01/25 09:54:34;;;;;;;;;;;;;;;;;;5064840;28;19954;-72
2023/01/25 09:57:00;;;;;;;;;;;;;;;;;;5069591;28;19923;-73
2023/01/25 09:59:29;;;;;;;;;;;;;;;;;;5067714;28;19920;-71
2023/01/25 10:02:04;;;;;;;50.80;31.60;;;;;;;;;;5069796;28;21215;-72
2023/01/25 10:04:36;;;;;;;45.78;25.90;;;;;;;;;;5067902;28;20051;-72
2023/01/25 10:07:23;;;;;;;43.08;26.55;;;;;;;;;;5067670;28;20028;-73
2023/01/25 10:09:51;;;;;;;46.97;27.05;;;;;;;;;;5051213;28;20222;-71
2023/01/25 10:12:25;;;;;;;46.53;25.20;;;;;;;;;;5066466;28;20138;-72
2023/01/25 10:14:51;;;;;;;50.28;27.92;;;;;;;;;;5070119;28;20024;-72
2023/01/25 10:17:23;;;;;;;41.00;24.95;;;;;;;;;;5071471;28;20032;-72
2023/01/25 10:19:54;;;;;;;44.60;26.23;;;;;;;;;;5066201;28;20803;-72
2023/01/25 10:22:23;;;;;;;40.63;24.92;;;;;;;;;;5065708;28;20035;-72
2023/01/25 10:25:10;;;;;;;44.47;25.73;;;;;;;;;;5065907;28;20029;-72
2023/01/25 10:27:44;;;;;;;42.10;24.48;;;;;;;;;;5064346;28;20058;-72
2023/01/25 10:30:23;;;;;;;39.17;23.30;;;;;;;;;;5062806;28;20142;-72
2023/01/25 10:32:51;;;;;;;38.20;23.48;;;;;;;;;;5065050;28;20035;-72
2023/01/25 10:35:20;;;;;;;41.17;24.92;;;;;;;;;;5066200;28;20020;-72
2023/01/25 10:37:46;;;;;;;37.90;22.60;;;;;;;;;;5065829;28;20075;-72
2023/01/25 10:40:19;;;;;;;42.75;24.85;;;;;;;;;;5063689;28;20777;-72
2023/01/25 10:42:50;;;;;;;40.17;23.55;;;;;;;;;;5064931;28;20032;-72
2023/01/25 10:45:17;;;;;;;45.65;25.27;;;;;;;;;;5064495;28;20039;-72
2023/01/25 10:47:48;;;;;;;40.58;24.75;;;;;;;;;;5066352;28;20048;-72
2023/01/25 10:50:32;;;;;;;37.65;23.10;;;;;;;;;;5065310;28;20028;-72
2023/01/25 10:52:58;;;;;;;45.70;27.02;;;;;;;;;;5069350;28;20042;-72
2023/01/25 10:55:25;;;;;;;39.58;23.48;;;;;;;;;;5064261;28;20052;-72
2023/01/25 10:57:56;;;;;;;41.95;23.65;;;;;;;;;;5067428;28;20744;-72
2023/01/25 11:00:23;;;;;;;41.70;25.83;;;;;;;;;;5070060;28;20028;-72
2023/01/25 11:02:49;;;;;;;36.55;22.42;;;;;;;;;;5064948;28;20098;-73
2023/01/25 11:05:18;;;;;;;41.47;22.70;;;;;;;;;;5060552;28;20020;-71
2023/01/25 11:07:44;;;;;;;37.33;22.30;;;;;;;;;;5061366;28;20032;-73
2023/01/25 11:10:40;;;;;;;50.42;26.17;;;;;;;;;;5064003;28;20032;-72
2023/01/25 11:13:15;;;;;;;42.38;23.48;;;;;;;;;;5048673;28;20044;-72
2023/01/25 11:15:45;;;;;;;45.05;23.13;;;;;;;;;;5069432;28;20334;-73
2023/01/25 11:18:13;;;;;;;38.15;22.38;;;;;;;;;;5075423;28;20036;-72
2023/01/25 11:20:39;;;;;;;41.03;27.23;;;;;;;;;;5072333;28;20474;-72
2023/01/25 11:23:19;;;;;;;36.95;23.60;;;;;;;;;;5061268;28;20075;-72
2023/01/25 11:25:45;;;;;;;39.72;23.98;;;;;;;;;;5061077;28;20056;-73
2023/01/25 11:28:21;;;;;;;40.28;22.95;;;;;;;;;;5065342;28;20075;-72
2023/01/25 11:30:48;;;;;;;36.92;22.13;;;;;;;;;;5066863;28;20028;-73
2023/01/25 11:33:15;;;;;;;31.70;19.65;;;;;;;;;;5052566;28;20064;-72
2023/01/25 11:36:01;;;;;;;40.30;21.35;;;;;;;;;;5069180;28;20065;-72
2023/01/25 11:38:28;;;;;;;35.13;22.23;;;;;;;;;;5068495;28;20863;-72
2023/01/25 11:40:54;;;;;;;34.65;22.05;;;;;;;;;;5072011;28;20027;-72
2023/01/25 11:43:43;;;;;;;38.05;23.23;;;;;;;;;;5067570;28;20028;-72
2023/01/25 11:46:21;;;;;;;34.83;21.63;;;;;;;;;;5065720;28;20063;-73
2023/01/25 11:48:56;;;;;;;35.53;21.60;;;;;;;;;;5069177;28;20032;-73
2023/01/25 11:51:45;;;;;;;39.33;22.98;;;;;;;;;;5062649;28;20557;-73
2023/01/25 11:54:11;;;;;;;37.90;21.13;;;;;;;;;;5025818;28;20067;-72
2023/01/25 11:56:40;;;;;;;46.33;25.90;;;;;;;;;;5064973;28;20067;-73
2023/01/25 11:59:09;;;;;;;46.08;24.40;;;;;;;;;;5068178;28;20032;-73
2023/01/25 12:01:45;;;;;;;39.05;23.75;;;;;;;;;;5064578;28;20045;-73
2023/01/25 12:04:12;;;;;;;28.30;17.75;;;;;;;;;;5069199;28;20037;-73
2023/01/25 12:06:44;;;;;;;29.65;17.70;;;;;;;;;;5067782;28;20047;-73
2023/01/25 12:09:13;;;;;;;24.88;15.07;;;;;;;;;;5062378;28;20024;-73
2023/01/25 12:11:51;;;;;;;29.02;17.65;;;;;;;;;;5067606;28;20038;-73
2023/01/25 12:14:32;;;;;;;26.60;16.88;;;;;;;;;;5065794;28;20097;-72
2023/01/25 12:16:58;;;;;;;26.20;16.52;;;;;;;;;;5069286;28;20452;-72
2023/01/25 12:19:24;;;;;;;29.17;16.75;;;;;;;;;;5065489;28;20103;-73
2023/01/25 12:22:29;;;;;;;27.27;15.45;;;;;;;;;;5068367;28;20127;-72
2023/01/25 12:25:13;;;;;;;21.08;12.95;;;;;;;;;;5004229;28;20038;-73
2023/01/25 12:27:54;;;;;;;23.65;14.93;;;;;;;;;;5003685;28;20256;-73
2023/01/25 12:30:25;;;;;;;25.65;14.82;;;;;;;;;;5048038;28;20683;-72
2023/01/25 12:33:13;;;;;;;29.42;18.05;;;;;;;;;;5068052;28;20058;-73
2023/01/25 12:35:42;;;;;;;27.88;17.13;;;;;;;;;;5051329;28;20040;-72
2023/01/25 12:38:13;;;;;;;26.15;17.80;;;;;;;;;;5064228;28;20040;-72
2023/01/25 12:40:48;;;;;;;24.23;15.55;;;;;;;;;;5069248;28;20527;-73
2023/01/25 12:43:16;;;;;;;24.15;14.90;;;;;;;;;;5067301;28;20699;-73
2023/01/25 12:45:44;;;;;;;26.42;17.08;;;;;;;;;;5066601;28;20024;-73
2023/01/25 12:48:11;;;;;;;29.38;18.02;;;;;;;;;;5069396;28;20462;-73
2023/01/25 12:50:42;;;;;;;29.58;18.88;;;;;;;;;;5069274;28;20024;-73
2023/01/25 12:53:20;;;;;;;24.60;15.90;;;;;;;;;;5075534;28;20043;-73
2023/01/25 12:55:47;;;;;;;26.67;17.38;;;;;;;;;;5068812;28;20096;-73
2023/01/25 12:58:20;;;;;;;21.88;14.07;;;;;;;;;;5067827;28;20041;-73
2023/01/25 13:00:51;;;;;;;24.52;14.30;;;;;;;;;;5075217;28;20032;-73
2023/01/25 13:03:24;;;;;;;24.80;15.77;;;;;;;;;;5067448;28;20065;-73
2023/01/25 13:05:56;;;;;;;29.70;17.05;;;;;;;;;;5072063;28;20024;-73
2023/01/25 13:08:22;;;;;;;;;;;;;;;;;;5067574;28;20032;-73
2023/01/25 13:10:50;;;;;;;27.35;16.05;;;;;;;;;;5072596;28;20328;-73
2023/01/25 13:13:21;;;;;;;29.20;17.45;;;;;;;;;;5066387;28;20751;-73
2023/01/25 13:15:47;;;;;;;26.50;15.98;;;;;;;;;;5069983;28;20111;-73
2023/01/25 13:18:29;;;;;;;27.52;16.70;;;;;;;;;;5043719;28;20486;-73
2023/01/25 13:20:55;;;;;;;27.17;17.95;;;;;;;;;;5071604;28;20075;-72
2023/01/25 13:23:32;;;;;;;29.27;17.67;;;;;;;;;;5067905;28;20032;-73
2023/01/25 13:26:17;;;;;;;26.85;18.33;;;;;;;;;;5070204;28;20035;-73
2023/01/25 13:28:45;;;;;;;23.05;14.93;;;;;;;;;;5071652;28;20036;-73
2023/01/25 13:31:32;;;;;;;25.70;16.80;;;;;;;;;;5053310;28;20458;-73
2023/01/25 13:33:59;;;;;;;23.38;15.50;;;;;;;;;;5068965;28;20089;-73
2023/01/25 13:36:40;;;;;;;27.30;17.77;;;;;;;;;;5069048;28;20040;-73
2023/01/25 13:39:35;;;;;;;27.90;17.88;;;;;;;;;;5070746;28;20114;-73
2023/01/25 13:42:15;;;;;;;26.08;17.02;;;;;;;;;;5010480;28;20080;-74
2023/01/25 13:44:46;;;;;;;25.10;16.40;;;;;;;;;;5066042;28;20561;-73
2023/01/25 13:47:14;;;;;;;25.55;16.15;;;;;;;;;;5069626;28;20465;-73
2023/01/25 13:49:43;;;;;;;26.92;16.73;;;;;;;;;;5068507;28;20035;-73
2023/01/25 13:52:16;;;;;;;23.42;17.05;;;;;;;;;;5066073;28;20031;-73
2023/01/25 13:54:43;;;;;;;27.92;17.58;;;;;;;;;;5064529;28;20085;-72
2023/01/25 13:57:12;;;;;;;30.20;19.45;;;;;;;;;;5063794;28;20121;-73
2023/01/25 13:59:38;;;;;;;30.80;19.83;;;;;;;;;;5062430;28;20060;-73
2023/01/25 14:02:12;;;;;;;35.95;19.13;;;;;;;;;;5068287;28;20044;-72
2023/01/25 14:04:38;;;;;;;29.38;19.52;;;;;;;;;;5061142;28;20035;-73
2023/01/25 14:07:08;;;;;;;28.15;16.98;;;;;;;;;;5070923;28;20594;-73
2023/01/25 14:09:35;;;;;;;31.20;18.45;;;;;;;;;;5066316;28;20024;-73
2023/01/25 14:12:02;;;;;;;28.45;17.33;;;;;;;;;;5068032;28;20500;-73
2023/01/25 14:14:33;;;;;;;28.60;18.25;;;;;;;;;;5067022;28;20123;-73
2023/01/25 14:17:14;;;;;;;30.25;18.67;;;;;;;;;;5067320;28;20029;-73
2023/01/25 14:19:43;;;;;;;29.95;17.15;;;;;;;;;;5067925;28;20474;-73
2023/01/25 14:22:15;;;;;;;28.95;18.25;;;;;;;;;;5070836;28;20036;-73
2023/01/25 14:24:41;;;;;;;32.47;18.83;;;;;;;;;;5069548;28;20024;-73
2023/01/25 14:27:11;;;;;;;27.33;16.98;;;;;;;;;;5068402;28;20032;-73
2023/01/25 14:29:37;;;;;;;30.75;19.70;;;;;;;;;;5074968;28;20078;-73
2023/01/25 14:32:03;;;;;;;29.80;17.95;;;;;;;;;;5065715;28;20078;-73
2023/01/25 14:34:29;;;;;;;25.90;16.33;;;;;;;;;;5040195;28;20039;-74
2023/01/25 14:37:14;;;;;;;28.17;17.50;;;;;;;;;;5073353;28;20064;-73
2023/01/25 14:39:40;;;;;;;33.08;19.05;;;;;;;;;;5066213;28;20075;-74
2023/01/25 15:15:56;;;;;;;35.45;18.48;;;;;;;;;;5068348;28;20043;-72
2023/01/25 15:18:41;;;;;;;33.83;19.23;;;;;;;;;;5074367;28;20371;-73
2023/01/25 15:21:09;;;;;;;31.73;18.42;;;;;;;;;;5072479;28;20047;-73
2023/01/25 15:23:39;;;;;;;30.17;19.35;;;;;;;;;;5068293;28;20112;-73
2023/01/25 15:26:13;;;;;;;31.50;19.73;;;;;;;;;;5064371;28;20810;-72
2023/01/25 15:28:39;;;;;;;36.42;21.02;;;;;;;;;;5073190;28;20693;-73
2023/01/25 15:31:05;;;;;;;31.38;19.08;;;;;;;;;;5080667;28;20047;-72
2023/01/25 15:33:32;;;;;;;31.58;18.55;;;;;;;;;;5070066;28;20079;-72
2023/01/25 15:35:58;;;;;;;29.40;19.17;;;;;;;;;;5072723;28;20780;-72
2023/01/25 15:38:25;;;;;;;28.48;20.02;;;;;;;;;;5072942;28;20055;-73
2023/01/25 15:40:51;;;;;;;33.83;21.35;;;;;;;;;;5069436;28;20461;-73
2023/01/25 15:43:19;;;;;;;35.13;19.35;;;;;;;;;;5074096;28;20036;-73
2023/01/25 15:45:50;;;;;;;32.50;20.50;;;;;;;;;;5071187;28;20070;-72
2023/01/25 15:48:18;;;;;;;36.10;22.00;;;;;;;;;;5071990;28;20127;-73
2023/01/25 15:50:44;;;;;;;32.35;20.60;;;;;;;;;;5052206;28;20020;-73
2023/01/25 15:53:17;;;;;;;36.05;22.35;;;;;;;;;;5078749;28;20366;-72
2023/01/25 15:55:44;;;;;;;32.83;20.48;;;;;;;;;;5069582;28;20024;-73
2023/01/25 15:58:13;;;;;;;35.35;20.17;;;;;;;;;;5070252;28;20067;-73
2023/01/25 16:00:39;;;;;;;34.75;21.05;;;;;;;;;;5072953;28;20059;-72
2023/01/25 16:03:06;;;;;;;37.88;23.48;;;;;;;;;;5070159;28;20095;-73
2023/01/25 16:05:32;;;;;;;41.55;23.40;;;;;;;;;;5068075;28;20025;-72
2023/01/25 16:07:58;;;;;;;40.35;22.75;;;;;;;;;;5070091;28;20028;-73
2023/01/25 16:10:24;;;;;;;38.10;23.58;;;;;;;;;;5069850;28;20541;-73
2023/01/25 16:12:50;;;;;;;35.55;21.30;;;;;;;;;;5075763;28;20514;-73
2023/01/25 16:15:16;;;;;;;37.65;22.05;;;;;;;;;;5070081;28;20059;-74
2023/01/25 16:17:43;;;;;;;33.42;20.20;;;;;;;;;;5076159;28;20707;-74
2023/01/25 16:20:19;;;;;;;37.90;22.05;;;;;;;;;;5074379;28;20071;-72
2023/01/25 16:22:45;;;;;;;38.80;23.73;;;;;;;;;;5048942;28;20047;-73
2023/01/25 16:25:11;;;;;;;36.17;22.38;;;;;;;;;;5070229;28;20103;-73
2023/01/25 16:27:37;;;;;;;41.00;23.90;;;;;;;;;;5066232;28;20956;-73
2023/01/25 16:30:04;;;;;;;39.80;23.63;;;;;;;;;;5056530;28;20705;-72